sensor_id;sensor_type;location;lat;lon;timestamp;P1;durP1;ratioP1;P2;durP2;ratioP2
22697;SDS011;11516;51.612;7.510;2023-04-03T00:00:46;5.00;;;2.67;;
22697;SDS011;11516;51.612;7.510;2023-04-03T00:03:14;4.03;;;2.53;;
22697;SDS011;11516;51.612;7.510;2023-04-03T00:05:40;3.50;;;2.10;;
22697;SDS011;11516;51.612;7.510;2023-04-03T00:08:06;5.15;;;2.53;;
22697;SDS011;11516;51.612;7.510;2023-04-03T00:10:34;4.68;;;2.00;;
22697;SDS011;11516;51.612;7.510;2023-04-03T00:13:01;4.47;;;2.40;;
22697;SDS011;11516;51.612;7.510;2023-04-03T00:15:27;4.32;;;2.30;;
22697;SDS011;11516;51.612;7.510;2023-04-03T00:17:53;5.07;;;2.40;;
22697;SDS011;11516;51.612;7.510;2023-04-03T00:20:18;3.07;;;1.77;;
22697;SDS011;11516;51.612;7.510;2023-04-03T00:22:44;4.40;;;2.08;;
22697;SDS011;11516;51.612;7.510;2023-04-03T00:25:10;4.93;;;2.35;;
22697;SDS011;11516;51.612;7.510;2023-04-03T00:27:37;5.63;;;2.00;;
22697;SDS011;11516;51.612;7.510;2023-04-03T00:30:03;5.07;;;2.28;;
22697;SDS011;11516;51.612;7.510;2023-04-03T00:32:29;5.82;;;2.25;;
22697;SDS011;11516;51.612;7.510;2023-04-03T00:34:55;4.60;;;2.03;;
22697;SDS011;11516;51.612;7.510;2023-04-03T00:37:20;5.22;;;2.38;;
22697;SDS011;11516;51.612;7.510;2023-04-03T00:39:45;4.17;;;2.03;;
22697;SDS011;11516;51.612;7.510;2023-04-03T00:42:11;4.77;;;2.27;;
22697;SDS011;11516;51.612;7.510;2023-04-03T00:47:03;5.10;;;2.17;;
22697;SDS011;11516;51.612;7.510;2023-04-03T00:49:31;4.00;;;2.10;;
22697;SDS011;11516;51.612;7.510;2023-04-03T00:51:57;4.15;;;2.05;;
22697;SDS011;11516;51.612;7.510;2023-04-03T00:54:23;5.80;;;2.47;;
22697;SDS011;11516;51.612;7.510;2023-04-03T00:56:51;3.45;;;2.15;;
22697;SDS011;11516;51.612;7.510;2023-04-03T00:59:25;5.45;;;2.42;;
22697;SDS011;11516;51.612;7.510;2023-04-03T01:01:55;3.88;;;2.28;;
22697;SDS011;11516;51.612;7.510;2023-04-03T01:04:34;5.55;;;2.53;;
22697;SDS011;11516;51.612;7.510;2023-04-03T01:07:02;4.32;;;2.30;;
22697;SDS011;11516;51.612;7.510;2023-04-03T01:09:31;4.75;;;2.63;;
22697;SDS011;11516;51.612;7.510;2023-04-03T01:14:38;5.93;;;2.63;;
22697;SDS011;11516;51.612;7.510;2023-04-03T01:17:20;3.85;;;2.28;;
22697;SDS011;11516;51.612;7.510;2023-04-03T01:19:49;6.68;;;2.60;;
22697;SDS011;11516;51.612;7.510;2023-04-03T01:25:16;3.83;;;2.25;;
22697;SDS011;11516;51.612;7.510;2023-04-03T01:27:42;5.85;;;2.50;;
22697;SDS011;11516;51.612;7.510;2023-04-03T01:30:08;4.10;;;2.30;;
22697;SDS011;11516;51.612;7.510;2023-04-03T01:32:34;5.63;;;2.85;;
22697;SDS011;11516;51.612;7.510;2023-04-03T01:34:59;5.20;;;2.40;;
22697;SDS011;11516;51.612;7.510;2023-04-03T01:37:25;5.38;;;2.60;;
22697;SDS011;11516;51.612;7.510;2023-04-03T01:39:51;6.10;;;2.27;;
22697;SDS011;11516;51.612;7.510;2023-04-03T01:42:16;3.57;;;2.07;;
22697;SDS011;11516;51.612;7.510;2023-04-03T01:44:42;5.65;;;2.72;;
22697;SDS011;11516;51.612;7.510;2023-04-03T01:47:07;4.30;;;2.13;;
22697;SDS011;11516;51.612;7.510;2023-04-03T01:49:33;4.90;;;2.55;;
22697;SDS011;11516;51.612;7.510;2023-04-03T01:51:58;5.23;;;2.33;;
22697;SDS011;11516;51.612;7.510;2023-04-03T01:54:24;7.27;;;2.80;;
22697;SDS011;11516;51.612;7.510;2023-04-03T01:56:50;5.50;;;2.50;;
22697;SDS011;11516;51.612;7.510;2023-04-03T01:59:15;5.03;;;2.30;;
22697;SDS011;11516;51.612;7.510;2023-04-03T02:01:42;5.32;;;2.78;;
22697;SDS011;11516;51.612;7.510;2023-04-03T02:04:10;3.92;;;2.10;;
22697;SDS011;11516;51.612;7.510;2023-04-03T02:06:36;4.80;;;2.30;;
22697;SDS011;11516;51.612;7.510;2023-04-03T02:09:02;4.80;;;2.85;;
22697;SDS011;11516;51.612;7.510;2023-04-03T02:11:28;4.13;;;2.42;;
22697;SDS011;11516;51.612;7.510;2023-04-03T02:13:53;5.83;;;2.33;;
22697;SDS011;11516;51.612;7.510;2023-04-03T02:16:19;6.97;;;2.65;;
22697;SDS011;11516;51.612;7.510;2023-04-03T02:18:44;6.10;;;2.67;;
22697;SDS011;11516;51.612;7.510;2023-04-03T02:21:10;4.40;;;2.37;;
22697;SDS011;11516;51.612;7.510;2023-04-03T02:23:35;4.55;;;2.33;;
22697;SDS011;11516;51.612;7.510;2023-04-03T02:26:06;4.10;;;2.33;;
22697;SDS011;11516;51.612;7.510;2023-04-03T02:28:34;5.45;;;2.30;;
22697;SDS011;11516;51.612;7.510;2023-04-03T02:30:59;5.75;;;2.20;;
22697;SDS011;11516;51.612;7.510;2023-04-03T02:33:25;4.43;;;2.30;;
22697;SDS011;11516;51.612;7.510;2023-04-03T02:35:56;4.55;;;2.10;;
22697;SDS011;11516;51.612;7.510;2023-04-03T02:38:23;4.57;;;2.45;;
22697;SDS011;11516;51.612;7.510;2023-04-03T02:40:50;4.63;;;2.30;;
22697;SDS011;11516;51.612;7.510;2023-04-03T02:43:16;5.63;;;2.50;;
22697;SDS011;11516;51.612;7.510;2023-04-03T02:45:42;6.95;;;2.70;;
22697;SDS011;11516;51.612;7.510;2023-04-03T02:48:07;8.50;;;2.87;;
22697;SDS011;11516;51.612;7.510;2023-04-03T02:50:33;4.83;;;2.70;;
22697;SDS011;11516;51.612;7.510;2023-04-03T02:52:58;7.05;;;2.70;;
22697;SDS011;11516;51.612;7.510;2023-04-03T02:55:24;5.27;;;2.50;;
22697;SDS011;11516;51.612;7.510;2023-04-03T02:57:50;4.97;;;2.72;;
22697;SDS011;11516;51.612;7.510;2023-04-03T03:00:15;6.73;;;2.60;;
22697;SDS011;11516;51.612;7.510;2023-04-03T03:02:41;5.15;;;2.78;;
22697;SDS011;11516;51.612;7.510;2023-04-03T03:05:07;6.47;;;2.70;;
22697;SDS011;11516;51.612;7.510;2023-04-03T03:07:33;6.63;;;2.97;;
22697;SDS011;11516;51.612;7.510;2023-04-03T03:09:59;4.88;;;2.70;;
22697;SDS011;11516;51.612;7.510;2023-04-03T03:12:25;5.88;;;2.97;;
22697;SDS011;11516;51.612;7.510;2023-04-03T03:14:50;5.30;;;2.80;;
22697;SDS011;11516;51.612;7.510;2023-04-03T03:17:16;6.97;;;2.80;;
22697;SDS011;11516;51.612;7.510;2023-04-03T03:19:42;5.72;;;2.83;;
22697;SDS011;11516;51.612;7.510;2023-04-03T03:22:08;6.57;;;2.63;;
22697;SDS011;11516;51.612;7.510;2023-04-03T03:24:33;7.40;;;2.85;;
22697;SDS011;11516;51.612;7.510;2023-04-03T03:26:59;6.50;;;2.80;;
22697;SDS011;11516;51.612;7.510;2023-04-03T03:29:24;9.57;;;3.13;;
22697;SDS011;11516;51.612;7.510;2023-04-03T03:31:50;6.67;;;2.77;;
22697;SDS011;11516;51.612;7.510;2023-04-03T03:34:15;6.23;;;2.83;;
22697;SDS011;11516;51.612;7.510;2023-04-03T03:36:41;5.13;;;2.47;;
22697;SDS011;11516;51.612;7.510;2023-04-03T03:39:07;7.07;;;2.70;;
22697;SDS011;11516;51.612;7.510;2023-04-03T03:41:32;6.93;;;2.70;;
22697;SDS011;11516;51.612;7.510;2023-04-03T03:43:58;6.32;;;2.65;;
22697;SDS011;11516;51.612;7.510;2023-04-03T03:46:23;8.43;;;2.87;;
22697;SDS011;11516;51.612;7.510;2023-04-03T03:48:49;7.45;;;2.65;;
22697;SDS011;11516;51.612;7.510;2023-04-03T03:51:14;4.80;;;2.80;;
22697;SDS011;11516;51.612;7.510;2023-04-03T03:53:40;9.05;;;2.75;;
22697;SDS011;11516;51.612;7.510;2023-04-03T03:56:06;5.30;;;2.57;;
22697;SDS011;11516;51.612;7.510;2023-04-03T03:58:32;4.68;;;2.55;;
22697;SDS011;11516;51.612;7.510;2023-04-03T04:01:04;4.72;;;2.90;;
22697;SDS011;11516;51.612;7.510;2023-04-03T04:03:31;7.53;;;2.83;;
22697;SDS011;11516;51.612;7.510;2023-04-03T04:05:57;6.40;;;2.90;;
22697;SDS011;11516;51.612;7.510;2023-04-03T04:08:23;6.90;;;3.22;;
22697;SDS011;11516;51.612;7.510;2023-04-03T04:10:48;5.33;;;2.60;;
22697;SDS011;11516;51.612;7.510;2023-04-03T04:13:14;4.33;;;2.73;;
22697;SDS011;11516;51.612;7.510;2023-04-03T04:15:41;6.63;;;2.80;;
22697;SDS011;11516;51.612;7.510;2023-04-03T04:18:07;7.47;;;2.85;;
22697;SDS011;11516;51.612;7.510;2023-04-03T04:20:33;5.80;;;2.95;;
22697;SDS011;11516;51.612;7.510;2023-04-03T04:22:58;4.53;;;2.97;;
22697;SDS011;11516;51.612;7.510;2023-04-03T04:25:24;5.30;;;2.58;;
22697;SDS011;11516;51.612;7.510;2023-04-03T04:27:49;8.30;;;3.37;;
22697;SDS011;11516;51.612;7.510;2023-04-03T04:30:15;9.10;;;3.55;;
22697;SDS011;11516;51.612;7.510;2023-04-03T04:32:40;7.90;;;3.00;;
22697;SDS011;11516;51.612;7.510;2023-04-03T04:35:06;7.73;;;3.20;;
22697;SDS011;11516;51.612;7.510;2023-04-03T04:37:32;8.13;;;3.40;;
22697;SDS011;11516;51.612;7.510;2023-04-03T04:39:58;7.20;;;3.00;;
22697;SDS011;11516;51.612;7.510;2023-04-03T04:42:23;7.63;;;2.80;;
22697;SDS011;11516;51.612;7.510;2023-04-03T04:44:49;5.93;;;2.70;;
22697;SDS011;11516;51.612;7.510;2023-04-03T04:47:15;7.38;;;2.60;;
22697;SDS011;11516;51.612;7.510;2023-04-03T04:49:40;7.37;;;2.93;;
22697;SDS011;11516;51.612;7.510;2023-04-03T04:52:06;5.77;;;3.40;;
22697;SDS011;11516;51.612;7.510;2023-04-03T04:54:32;7.28;;;3.13;;
22697;SDS011;11516;51.612;7.510;2023-04-03T04:56:57;5.78;;;3.00;;
22697;SDS011;11516;51.612;7.510;2023-04-03T04:59:23;5.70;;;3.17;;
22697;SDS011;11516;51.612;7.510;2023-04-03T05:01:48;9.48;;;3.03;;
22697;SDS011;11516;51.612;7.510;2023-04-03T05:04:14;7.30;;;3.23;;
22697;SDS011;11516;51.612;7.510;2023-04-03T05:06:40;6.65;;;3.28;;
22697;SDS011;11516;51.612;7.510;2023-04-03T05:09:06;8.77;;;3.40;;
22697;SDS011;11516;51.612;7.510;2023-04-03T05:11:31;7.83;;;3.20;;
22697;SDS011;11516;51.612;7.510;2023-04-03T05:13:57;6.47;;;3.20;;
22697;SDS011;11516;51.612;7.510;2023-04-03T05:16:23;5.83;;;3.27;;
22697;SDS011;11516;51.612;7.510;2023-04-03T05:18:48;7.28;;;3.10;;
22697;SDS011;11516;51.612;7.510;2023-04-03T05:21:14;7.72;;;3.45;;
22697;SDS011;11516;51.612;7.510;2023-04-03T05:23:40;5.57;;;3.20;;
22697;SDS011;11516;51.612;7.510;2023-04-03T05:26:05;7.47;;;3.45;;
22697;SDS011;11516;51.612;7.510;2023-04-03T05:28:31;7.13;;;3.53;;
22697;SDS011;11516;51.612;7.510;2023-04-03T05:30:57;6.32;;;3.80;;
22697;SDS011;11516;51.612;7.510;2023-04-03T05:33:24;7.17;;;3.23;;
22697;SDS011;11516;51.612;7.510;2023-04-03T05:35:51;6.75;;;3.40;;
22697;SDS011;11516;51.612;7.510;2023-04-03T05:38:17;7.95;;;4.07;;
22697;SDS011;11516;51.612;7.510;2023-04-03T05:40:42;7.60;;;3.30;;
22697;SDS011;11516;51.612;7.510;2023-04-03T05:43:08;7.40;;;3.60;;
22697;SDS011;11516;51.612;7.510;2023-04-03T05:45:35;8.80;;;3.53;;
22697;SDS011;11516;51.612;7.510;2023-04-03T05:48:00;6.95;;;3.33;;
22697;SDS011;11516;51.612;7.510;2023-04-03T05:50:26;8.87;;;3.63;;
22697;SDS011;11516;51.612;7.510;2023-04-03T05:52:52;6.30;;;3.17;;
22697;SDS011;11516;51.612;7.510;2023-04-03T05:55:21;8.52;;;3.78;;
22697;SDS011;11516;51.612;7.510;2023-04-03T05:57:46;6.17;;;3.50;;
22697;SDS011;11516;51.612;7.510;2023-04-03T06:00:12;5.72;;;3.28;;
22697;SDS011;11516;51.612;7.510;2023-04-03T06:02:40;8.93;;;3.53;;
22697;SDS011;11516;51.612;7.510;2023-04-03T06:05:07;8.93;;;4.00;;
22697;SDS011;11516;51.612;7.510;2023-04-03T06:07:33;8.10;;;3.40;;
22697;SDS011;11516;51.612;7.510;2023-04-03T06:09:59;8.70;;;3.30;;
22697;SDS011;11516;51.612;7.510;2023-04-03T06:12:25;5.93;;;2.92;;
22697;SDS011;11516;51.612;7.510;2023-04-03T06:14:51;7.03;;;3.67;;
22697;SDS011;11516;51.612;7.510;2023-04-03T06:17:17;8.63;;;3.70;;
22697;SDS011;11516;51.612;7.510;2023-04-03T06:19:43;6.95;;;3.33;;
22697;SDS011;11516;51.612;7.510;2023-04-03T06:22:09;8.10;;;3.35;;
22697;SDS011;11516;51.612;7.510;2023-04-03T06:24:36;7.30;;;3.20;;
22697;SDS011;11516;51.612;7.510;2023-04-03T06:27:02;8.07;;;3.20;;
22697;SDS011;11516;51.612;7.510;2023-04-03T06:29:27;7.35;;;3.15;;
22697;SDS011;11516;51.612;7.510;2023-04-03T06:31:53;7.40;;;3.20;;
22697;SDS011;11516;51.612;7.510;2023-04-03T06:34:18;8.57;;;3.20;;
22697;SDS011;11516;51.612;7.510;2023-04-03T06:36:45;7.30;;;3.30;;
22697;SDS011;11516;51.612;7.510;2023-04-03T06:39:14;6.17;;;3.30;;
22697;SDS011;11516;51.612;7.510;2023-04-03T06:41:42;7.43;;;3.38;;
22697;SDS011;11516;51.612;7.510;2023-04-03T06:44:08;7.70;;;3.25;;
22697;SDS011;11516;51.612;7.510;2023-04-03T06:46:36;9.32;;;3.58;;
22697;SDS011;11516;51.612;7.510;2023-04-03T06:49:02;7.75;;;3.28;;
22697;SDS011;11516;51.612;7.510;2023-04-03T06:51:29;10.77;;;3.97;;
22697;SDS011;11516;51.612;7.510;2023-04-03T06:53:56;8.30;;;4.30;;
22697;SDS011;11516;51.612;7.510;2023-04-03T06:56:23;8.25;;;3.28;;
22697;SDS011;11516;51.612;7.510;2023-04-03T06:58:51;6.90;;;3.53;;
22697;SDS011;11516;51.612;7.510;2023-04-03T07:01:19;8.18;;;3.60;;
22697;SDS011;11516;51.612;7.510;2023-04-03T07:03:45;9.10;;;3.55;;
22697;SDS011;11516;51.612;7.510;2023-04-03T07:06:12;7.50;;;3.17;;
22697;SDS011;11516;51.612;7.510;2023-04-03T07:08:39;5.55;;;3.17;;
22697;SDS011;11516;51.612;7.510;2023-04-03T07:11:05;7.03;;;3.42;;
22697;SDS011;11516;51.612;7.510;2023-04-03T07:13:31;7.60;;;3.10;;
22697;SDS011;11516;51.612;7.510;2023-04-03T07:15:57;7.10;;;3.30;;
22697;SDS011;11516;51.612;7.510;2023-04-03T07:18:23;6.57;;;2.72;;
22697;SDS011;11516;51.612;7.510;2023-04-03T07:20:49;8.70;;;2.92;;
22697;SDS011;11516;51.612;7.510;2023-04-03T07:23:15;6.68;;;2.88;;
22697;SDS011;11516;51.612;7.510;2023-04-03T07:25:44;5.20;;;3.17;;
22697;SDS011;11516;51.612;7.510;2023-04-03T07:28:10;8.07;;;3.58;;
22697;SDS011;11516;51.612;7.510;2023-04-03T07:30:42;7.55;;;3.25;;
22697;SDS011;11516;51.612;7.510;2023-04-03T07:33:12;10.32;;;3.25;;
22697;SDS011;11516;51.612;7.510;2023-04-03T07:35:39;7.23;;;3.27;;
22697;SDS011;11516;51.612;7.510;2023-04-03T07:38:05;8.32;;;3.17;;
22697;SDS011;11516;51.612;7.510;2023-04-03T07:40:31;6.00;;;2.50;;
22697;SDS011;11516;51.612;7.510;2023-04-03T07:42:56;5.18;;;2.75;;
22697;SDS011;11516;51.612;7.510;2023-04-03T07:45:22;7.55;;;2.83;;
22697;SDS011;11516;51.612;7.510;2023-04-03T07:47:48;6.95;;;2.35;;
22697;SDS011;11516;51.612;7.510;2023-04-03T07:50:14;6.30;;;2.70;;
22697;SDS011;11516;51.612;7.510;2023-04-03T07:52:40;5.85;;;2.78;;
22697;SDS011;11516;51.612;7.510;2023-04-03T07:55:06;5.88;;;2.60;;
22697;SDS011;11516;51.612;7.510;2023-04-03T07:57:32;4.45;;;2.30;;
22697;SDS011;11516;51.612;7.510;2023-04-03T07:59:57;5.77;;;2.57;;
22697;SDS011;11516;51.612;7.510;2023-04-03T08:02:23;4.73;;;2.47;;
22697;SDS011;11516;51.612;7.510;2023-04-03T08:04:48;7.95;;;3.05;;
22697;SDS011;11516;51.612;7.510;2023-04-03T08:07:14;6.60;;;2.50;;
22697;SDS011;11516;51.612;7.510;2023-04-03T08:09:40;8.23;;;2.30;;
22697;SDS011;11516;51.612;7.510;2023-04-03T08:12:05;6.68;;;2.45;;
22697;SDS011;11516;51.612;7.510;2023-04-03T08:14:31;5.53;;;2.47;;
22697;SDS011;11516;51.612;7.510;2023-04-03T08:16:59;5.72;;;2.22;;
22697;SDS011;11516;51.612;7.510;2023-04-03T08:19:25;6.60;;;2.87;;
22697;SDS011;11516;51.612;7.510;2023-04-03T08:21:51;5.65;;;2.53;;
22697;SDS011;11516;51.612;7.510;2023-04-03T08:24:17;6.25;;;2.53;;
22697;SDS011;11516;51.612;7.510;2023-04-03T08:26:42;4.63;;;2.17;;
22697;SDS011;11516;51.612;7.510;2023-04-03T08:29:08;4.77;;;2.60;;
22697;SDS011;11516;51.612;7.510;2023-04-03T08:31:33;5.32;;;2.22;;
22697;SDS011;11516;51.612;7.510;2023-04-03T08:33:59;5.53;;;2.73;;
22697;SDS011;11516;51.612;7.510;2023-04-03T08:36:25;4.40;;;2.30;;
22697;SDS011;11516;51.612;7.510;2023-04-03T08:38:53;4.35;;;2.28;;
22697;SDS011;11516;51.612;7.510;2023-04-03T08:41:23;6.53;;;1.85;;
22697;SDS011;11516;51.612;7.510;2023-04-03T08:44:10;4.53;;;2.40;;
22697;SDS011;11516;51.612;7.510;2023-04-03T08:49:47;2.70;;;1.90;;
22697;SDS011;11516;51.612;7.510;2023-04-03T08:52:38;3.70;;;1.93;;
22697;SDS011;11516;51.612;7.510;2023-04-03T08:57:48;6.55;;;3.33;;
22697;SDS011;11516;51.612;7.510;2023-04-03T09:00:24;4.57;;;2.20;;
22697;SDS011;11516;51.612;7.510;2023-04-03T09:02:53;6.20;;;2.20;;
22697;SDS011;11516;51.612;7.510;2023-04-03T09:05:20;5.55;;;3.13;;
22697;SDS011;11516;51.612;7.510;2023-04-03T09:19:27;5.70;;;2.38;;
22697;SDS011;11516;51.612;7.510;2023-04-03T09:21:59;4.00;;;2.00;;
22697;SDS011;11516;51.612;7.510;2023-04-03T09:24:27;4.38;;;1.90;;
22697;SDS011;11516;51.612;7.510;2023-04-03T09:26:55;5.38;;;1.90;;
22697;SDS011;11516;51.612;7.510;2023-04-03T09:29:28;3.40;;;1.65;;
22697;SDS011;11516;51.612;7.510;2023-04-03T09:32:01;5.13;;;2.08;;
22697;SDS011;11516;51.612;7.510;2023-04-03T09:34:37;5.22;;;1.77;;
22697;SDS011;11516;51.612;7.510;2023-04-03T09:37:07;8.63;;;2.60;;
22697;SDS011;11516;51.612;7.510;2023-04-03T09:39:48;6.80;;;2.28;;
22697;SDS011;11516;51.612;7.510;2023-04-03T09:42:19;7.47;;;2.33;;
22697;SDS011;11516;51.612;7.510;2023-04-03T09:45:21;3.53;;;1.57;;
22697;SDS011;11516;51.612;7.510;2023-04-03T09:47:48;3.70;;;1.58;;
22697;SDS011;11516;51.612;7.510;2023-04-03T09:52:43;3.28;;;1.52;;
22697;SDS011;11516;51.612;7.510;2023-04-03T09:55:20;3.63;;;1.90;;
22697;SDS011;11516;51.612;7.510;2023-04-03T09:57:52;4.25;;;1.92;;
22697;SDS011;11516;51.612;7.510;2023-04-03T10:00:26;3.70;;;1.65;;
22697;SDS011;11516;51.612;7.510;2023-04-03T10:02:54;4.45;;;1.77;;
22697;SDS011;11516;51.612;7.510;2023-04-03T10:05:26;3.72;;;1.73;;
22697;SDS011;11516;51.612;7.510;2023-04-03T10:10:41;3.35;;;1.80;;
22697;SDS011;11516;51.612;7.510;2023-04-03T10:13:26;3.08;;;1.70;;
22697;SDS011;11516;51.612;7.510;2023-04-03T10:15:56;1.85;;;1.50;;
22697;SDS011;11516;51.612;7.510;2023-04-03T10:18:46;4.88;;;1.80;;
22697;SDS011;11516;51.612;7.510;2023-04-03T10:21:31;3.23;;;2.03;;
22697;SDS011;11516;51.612;7.510;2023-04-03T10:27:15;3.10;;;1.70;;
22697;SDS011;11516;51.612;7.510;2023-04-03T10:30:02;3.20;;;1.30;;
22697;SDS011;11516;51.612;7.510;2023-04-03T10:36:01;2.97;;;1.35;;
22697;SDS011;11516;51.612;7.510;2023-04-03T10:38:53;4.65;;;1.70;;
22697;SDS011;11516;51.612;7.510;2023-04-03T10:41:32;3.90;;;1.75;;
22697;SDS011;11516;51.612;7.510;2023-04-03T10:46:28;3.03;;;1.60;;
22697;SDS011;11516;51.612;7.510;2023-04-03T10:49:05;3.72;;;1.40;;
22697;SDS011;11516;51.612;7.510;2023-04-03T10:51:53;4.50;;;1.60;;
22697;SDS011;11516;51.612;7.510;2023-04-03T10:54:25;3.90;;;1.85;;
22697;SDS011;11516;51.612;7.510;2023-04-03T10:56:57;4.20;;;1.50;;
22697;SDS011;11516;51.612;7.510;2023-04-03T11:01:59;3.30;;;1.50;;
22697;SDS011;11516;51.612;7.510;2023-04-03T11:04:30;3.72;;;1.60;;
22697;SDS011;11516;51.612;7.510;2023-04-03T11:09:47;2.83;;;1.08;;
22697;SDS011;11516;51.612;7.510;2023-04-03T11:14:59;2.90;;;1.20;;
22697;SDS011;11516;51.612;7.510;2023-04-03T11:17:33;3.72;;;1.50;;
22697;SDS011;11516;51.612;7.510;2023-04-03T11:20:10;2.75;;;1.20;;
22697;SDS011;11516;51.612;7.510;2023-04-03T11:23:02;2.50;;;1.20;;
22697;SDS011;11516;51.612;7.510;2023-04-03T11:25:49;3.17;;;1.38;;
22697;SDS011;11516;51.612;7.510;2023-04-03T11:28:18;2.70;;;1.40;;
22697;SDS011;11516;51.612;7.510;2023-04-03T11:30:47;3.90;;;1.37;;
22697;SDS011;11516;51.612;7.510;2023-04-03T11:36:00;2.95;;;1.60;;
22697;SDS011;11516;51.612;7.510;2023-04-03T11:38:34;3.13;;;1.40;;
22697;SDS011;11516;51.612;7.510;2023-04-03T11:41:05;2.40;;;1.75;;
22697;SDS011;11516;51.612;7.510;2023-04-03T11:43:33;2.65;;;1.40;;
22697;SDS011;11516;51.612;7.510;2023-04-03T11:46:05;2.83;;;1.60;;
22697;SDS011;11516;51.612;7.510;2023-04-03T11:51:00;2.88;;;1.45;;
22697;SDS011;11516;51.612;7.510;2023-04-03T11:53:28;3.45;;;1.35;;
22697;SDS011;11516;51.612;7.510;2023-04-03T11:56:00;2.20;;;1.48;;
22697;SDS011;11516;51.612;7.510;2023-04-03T11:58:33;3.00;;;1.50;;
22697;SDS011;11516;51.612;7.510;2023-04-03T12:01:09;3.58;;;1.48;;
22697;SDS011;11516;51.612;7.510;2023-04-03T12:18:55;3.30;;;1.30;;
22697;SDS011;11516;51.612;7.510;2023-04-03T12:31:55;2.63;;;1.20;;
22697;SDS011;11516;51.612;7.510;2023-04-03T12:37:40;4.05;;;1.80;;
22697;SDS011;11516;51.612;7.510;2023-04-03T12:48:52;2.40;;;1.60;;
22697;SDS011;11516;51.612;7.510;2023-04-03T12:53:52;2.15;;;1.27;;
22697;SDS011;11516;51.612;7.510;2023-04-03T12:56:26;2.60;;;1.33;;
22697;SDS011;11516;51.612;7.510;2023-04-03T12:58:54;2.80;;;1.23;;
22697;SDS011;11516;51.612;7.510;2023-04-03T13:01:25;2.83;;;1.30;;
22697;SDS011;11516;51.612;7.510;2023-04-03T13:03:52;2.95;;;1.60;;
22697;SDS011;11516;51.612;7.510;2023-04-03T13:06:24;2.53;;;1.40;;
22697;SDS011;11516;51.612;7.510;2023-04-03T13:09:00;2.50;;;1.42;;
22697;SDS011;11516;51.612;7.510;2023-04-03T13:11:38;3.33;;;1.42;;
22697;SDS011;11516;51.612;7.510;2023-04-03T13:14:14;3.45;;;1.45;;
22697;SDS011;11516;51.612;7.510;2023-04-03T13:16:42;2.70;;;1.33;;
22697;SDS011;11516;51.612;7.510;2023-04-03T13:19:19;1.85;;;1.20;;
22697;SDS011;11516;51.612;7.510;2023-04-03T13:21:47;2.30;;;1.23;;
22697;SDS011;11516;51.612;7.510;2023-04-03T13:24:14;4.18;;;1.58;;
22697;SDS011;11516;51.612;7.510;2023-04-03T13:26:40;3.28;;;1.45;;
22697;SDS011;11516;51.612;7.510;2023-04-03T13:29:07;5.75;;;1.92;;
22697;SDS011;11516;51.612;7.510;2023-04-03T13:31:42;3.85;;;1.52;;
22697;SDS011;11516;51.612;7.510;2023-04-03T13:34:16;3.28;;;1.55;;
22697;SDS011;11516;51.612;7.510;2023-04-03T13:36:55;2.90;;;1.52;;
22697;SDS011;11516;51.612;7.510;2023-04-03T13:39:24;5.32;;;1.42;;
22697;SDS011;11516;51.612;7.510;2023-04-03T13:41:52;2.75;;;1.45;;
22697;SDS011;11516;51.612;7.510;2023-04-03T13:46:52;2.88;;;1.48;;
22697;SDS011;11516;51.612;7.510;2023-04-03T13:51:51;4.78;;;1.67;;
22697;SDS011;11516;51.612;7.510;2023-04-03T13:54:19;3.10;;;1.30;;
22697;SDS011;11516;51.612;7.510;2023-04-03T13:56:51;2.80;;;1.75;;
22697;SDS011;11516;51.612;7.510;2023-04-03T14:01:50;2.33;;;1.40;;
22697;SDS011;11516;51.612;7.510;2023-04-03T14:04:17;3.65;;;1.70;;
22697;SDS011;11516;51.612;7.510;2023-04-03T14:06:49;3.25;;;1.70;;
22697;SDS011;11516;51.612;7.510;2023-04-03T14:09:16;3.08;;;1.60;;
22697;SDS011;11516;51.612;7.510;2023-04-03T14:11:43;5.28;;;2.50;;
22697;SDS011;11516;51.612;7.510;2023-04-03T14:14:31;3.08;;;1.70;;
22697;SDS011;11516;51.612;7.510;2023-04-03T14:16:58;5.18;;;1.80;;
22697;SDS011;11516;51.612;7.510;2023-04-03T14:19:27;2.00;;;1.50;;
22697;SDS011;11516;51.612;7.510;2023-04-03T14:21:54;5.55;;;1.98;;
22697;SDS011;11516;51.612;7.510;2023-04-03T14:24:21;3.83;;;1.85;;
22697;SDS011;11516;51.612;7.510;2023-04-03T14:26:47;3.22;;;1.88;;
22697;SDS011;11516;51.612;7.510;2023-04-03T14:29:14;2.83;;;1.55;;
22697;SDS011;11516;51.612;7.510;2023-04-03T14:31:41;2.60;;;1.90;;
22697;SDS011;11516;51.612;7.510;2023-04-03T14:34:09;4.07;;;2.00;;
22697;SDS011;11516;51.612;7.510;2023-04-03T14:36:36;3.10;;;1.60;;
22697;SDS011;11516;51.612;7.510;2023-04-03T14:39:03;2.40;;;2.07;;
22697;SDS011;11516;51.612;7.510;2023-04-03T14:41:29;2.85;;;1.50;;
22697;SDS011;11516;51.612;7.510;2023-04-03T14:43:55;3.75;;;1.92;;
22697;SDS011;11516;51.612;7.510;2023-04-03T14:46:26;2.33;;;1.40;;
22697;SDS011;11516;51.612;7.510;2023-04-03T14:49:01;2.75;;;1.52;;
22697;SDS011;11516;51.612;7.510;2023-04-03T14:51:32;3.70;;;1.70;;
22697;SDS011;11516;51.612;7.510;2023-04-03T14:53:58;4.33;;;1.70;;
22697;SDS011;11516;51.612;7.510;2023-04-03T14:56:28;2.63;;;1.75;;
22697;SDS011;11516;51.612;7.510;2023-04-03T14:58:58;5.77;;;2.13;;
22697;SDS011;11516;51.612;7.510;2023-04-03T15:01:25;3.08;;;1.65;;
22697;SDS011;11516;51.612;7.510;2023-04-03T15:03:52;3.85;;;1.65;;
22697;SDS011;11516;51.612;7.510;2023-04-03T15:06:17;3.50;;;1.83;;
22697;SDS011;11516;51.612;7.510;2023-04-03T15:08:43;4.35;;;1.95;;
22697;SDS011;11516;51.612;7.510;2023-04-03T15:11:10;3.23;;;1.70;;
22697;SDS011;11516;51.612;7.510;2023-04-03T15:13:37;4.95;;;1.92;;
22697;SDS011;11516;51.612;7.510;2023-04-03T15:16:03;2.67;;;1.77;;
22697;SDS011;11516;51.612;7.510;2023-04-03T15:18:40;2.80;;;1.77;;
22697;SDS011;11516;51.612;7.510;2023-04-03T15:21:06;3.63;;;1.63;;
22697;SDS011;11516;51.612;7.510;2023-04-03T15:23:31;4.30;;;1.77;;
22697;SDS011;11516;51.612;7.510;2023-04-03T15:25:57;5.05;;;1.83;;
22697;SDS011;11516;51.612;7.510;2023-04-03T15:28:25;2.88;;;1.88;;
22697;SDS011;11516;51.612;7.510;2023-04-03T15:30:57;3.63;;;1.70;;
22697;SDS011;11516;51.612;7.510;2023-04-03T15:33:23;3.80;;;1.63;;
22697;SDS011;11516;51.612;7.510;2023-04-03T15:35:49;3.60;;;1.92;;
22697;SDS011;11516;51.612;7.510;2023-04-03T15:38:15;3.13;;;1.98;;
22697;SDS011;11516;51.612;7.510;2023-04-03T15:40:40;4.30;;;2.00;;
22697;SDS011;11516;51.612;7.510;2023-04-03T15:43:07;2.30;;;1.60;;
22697;SDS011;11516;51.612;7.510;2023-04-03T15:45:34;4.28;;;2.70;;
22697;SDS011;11516;51.612;7.510;2023-04-03T15:48:01;4.40;;;1.75;;
22697;SDS011;11516;51.612;7.510;2023-04-03T15:50:28;3.55;;;1.90;;
22697;SDS011;11516;51.612;7.510;2023-04-03T15:52:54;5.20;;;2.13;;
22697;SDS011;11516;51.612;7.510;2023-04-03T15:55:26;3.25;;;1.90;;
22697;SDS011;11516;51.612;7.510;2023-04-03T15:57:53;3.15;;;1.88;;
22697;SDS011;11516;51.612;7.510;2023-04-03T16:00:19;3.22;;;2.00;;
22697;SDS011;11516;51.612;7.510;2023-04-03T16:02:47;4.07;;;2.45;;
22697;SDS011;11516;51.612;7.510;2023-04-03T16:05:15;3.15;;;2.00;;
22697;SDS011;11516;51.612;7.510;2023-04-03T16:07:42;4.15;;;1.98;;
22697;SDS011;11516;51.612;7.510;2023-04-03T16:10:10;3.03;;;1.65;;
22697;SDS011;11516;51.612;7.510;2023-04-03T16:12:36;2.88;;;1.70;;
22697;SDS011;11516;51.612;7.510;2023-04-03T16:15:02;5.13;;;2.00;;
22697;SDS011;11516;51.612;7.510;2023-04-03T16:17:28;2.37;;;1.70;;
22697;SDS011;11516;51.612;7.510;2023-04-03T16:19:55;4.82;;;2.28;;
22697;SDS011;11516;51.612;7.510;2023-04-03T16:22:21;4.77;;;1.73;;
22697;SDS011;11516;51.612;7.510;2023-04-03T16:24:51;4.32;;;2.30;;
22697;SDS011;11516;51.612;7.510;2023-04-03T16:27:16;4.70;;;1.93;;
22697;SDS011;11516;51.612;7.510;2023-04-03T16:29:42;4.72;;;2.10;;
22697;SDS011;11516;51.612;7.510;2023-04-03T16:32:08;3.35;;;1.50;;
22697;SDS011;11516;51.612;7.510;2023-04-03T16:34:34;4.17;;;1.90;;